Mammoth Lakes, California
Current Conditions -  °F | °C
As of 3:55 AM on Saturday 01 Nov 2014 (Local Time) from KMMH Reporting Station
Overcast Overcast  
Wind Chill: 30°   Ceiling: 5000
Heat Index: 34°   Visibility: 10mi
Dew Point: 34°   Wind: 5mph
Humidity: 100%   Direction: 290°WNW
Pressure: 29.65"   Gusts: NA
Location:  37.65°N, 118.97°W
Report Text: KMMH 011055Z AUTO 29004KT 10SM BKN050 OVC060 01/01 A2965 RMK AO1
Loading
Personal Weather Stations






























Interactive Weather Map
Tropical Storm Tracking
New forecast layout! Learn more

10-Day Weather Forecast

Advertisements
Track Severe Weather on mobile